sensor_id;sensor_type;location;lat;lon;timestamp;P1;durP1;ratioP1;P2;durP2;ratioP2
66129;SDS011;52930;51.464;11.764;2022-12-18T00:03:44;31.73;;;12.97;;
66129;SDS011;52930;51.464;11.764;2022-12-18T00:06:09;28.70;;;9.88;;
66129;SDS011;52930;51.464;11.764;2022-12-18T00:08:35;31.50;;;11.87;;
66129;SDS011;52930;51.464;11.764;2022-12-18T00:11:04;31.33;;;11.47;;
66129;SDS011;52930;51.464;11.764;2022-12-18T00:13:31;27.40;;;11.18;;
66129;SDS011;52930;51.464;11.764;2022-12-18T00:16:00;31.57;;;11.43;;
66129;SDS011;52930;51.464;11.764;2022-12-18T00:18:30;28.75;;;10.85;;
66129;SDS011;52930;51.464;11.764;2022-12-18T00:21:00;35.20;;;13.02;;
66129;SDS011;52930;51.464;11.764;2022-12-18T00:23:29;31.87;;;11.63;;
66129;SDS011;52930;51.464;11.764;2022-12-18T00:25:59;36.80;;;10.77;;
66129;SDS011;52930;51.464;11.764;2022-12-18T00:28:25;31.13;;;10.80;;
66129;SDS011;52930;51.464;11.764;2022-12-18T00:30:50;29.43;;;10.67;;
66129;SDS011;52930;51.464;11.764;2022-12-18T00:33:16;30.15;;;11.13;;
66129;SDS011;52930;51.464;11.764;2022-12-18T00:35:42;28.77;;;10.35;;
66129;SDS011;52930;51.464;11.764;2022-12-18T00:38:08;34.53;;;13.30;;
66129;SDS011;52930;51.464;11.764;2022-12-18T00:40:33;39.00;;;12.90;;
66129;SDS011;52930;51.464;11.764;2022-12-18T00:42:58;34.38;;;11.95;;
66129;SDS011;52930;51.464;11.764;2022-12-18T00:45:28;32.40;;;12.97;;
66129;SDS011;52930;51.464;11.764;2022-12-18T00:47:55;34.00;;;10.97;;
66129;SDS011;52930;51.464;11.764;2022-12-18T00:50:21;35.28;;;11.45;;
66129;SDS011;52930;51.464;11.764;2022-12-18T00:52:47;30.95;;;11.55;;
66129;SDS011;52930;51.464;11.764;2022-12-18T00:55:12;30.83;;;11.47;;
66129;SDS011;52930;51.464;11.764;2022-12-18T00:57:38;36.90;;;12.67;;
66129;SDS011;52930;51.464;11.764;2022-12-18T01:00:04;27.70;;;10.30;;
66129;SDS011;52930;51.464;11.764;2022-12-18T01:02:31;32.47;;;12.63;;
66129;SDS011;52930;51.464;11.764;2022-12-18T01:04:56;33.97;;;12.43;;
66129;SDS011;52930;51.464;11.764;2022-12-18T01:07:22;24.00;;;10.23;;
66129;SDS011;52930;51.464;11.764;2022-12-18T01:09:47;27.17;;;10.07;;
66129;SDS011;52930;51.464;11.764;2022-12-18T01:12:12;38.43;;;13.10;;
66129;SDS011;52930;51.464;11.764;2022-12-18T01:14:38;40.33;;;12.50;;
66129;SDS011;52930;51.464;11.764;2022-12-18T01:17:03;36.85;;;13.00;;
66129;SDS011;52930;51.464;11.764;2022-12-18T01:19:29;44.28;;;14.07;;
66129;SDS011;52930;51.464;11.764;2022-12-18T01:21:54;32.00;;;11.13;;
66129;SDS011;52930;51.464;11.764;2022-12-18T01:24:20;30.30;;;11.03;;
66129;SDS011;52930;51.464;11.764;2022-12-18T01:26:45;48.33;;;10.67;;
66129;SDS011;52930;51.464;11.764;2022-12-18T01:29:10;34.95;;;11.50;;
66129;SDS011;52930;51.464;11.764;2022-12-18T01:31:36;33.60;;;11.10;;
66129;SDS011;52930;51.464;11.764;2022-12-18T01:34:02;43.97;;;13.67;;
66129;SDS011;52930;51.464;11.764;2022-12-18T01:36:30;49.90;;;10.75;;
66129;SDS011;52930;51.464;11.764;2022-12-18T01:39:01;33.60;;;12.57;;
66129;SDS011;52930;51.464;11.764;2022-12-18T01:41:29;39.20;;;12.40;;
66129;SDS011;52930;51.464;11.764;2022-12-18T01:44:58;25.25;;;9.27;;
66129;SDS011;52930;51.464;11.764;2022-12-18T01:49:59;33.78;;;12.63;;
66129;SDS011;52930;51.464;11.764;2022-12-18T01:52:28;31.90;;;10.50;;
66129;SDS011;52930;51.464;11.764;2022-12-18T01:54:54;30.02;;;10.27;;
66129;SDS011;52930;51.464;11.764;2022-12-18T01:57:20;29.00;;;11.80;;
66129;SDS011;52930;51.464;11.764;2022-12-18T01:59:45;24.60;;;9.80;;
66129;SDS011;52930;51.464;11.764;2022-12-18T02:02:12;45.08;;;13.18;;
66129;SDS011;52930;51.464;11.764;2022-12-18T02:04:39;30.43;;;11.73;;
66129;SDS011;52930;51.464;11.764;2022-12-18T02:07:20;26.92;;;9.25;;
66129;SDS011;52930;51.464;11.764;2022-12-18T02:09:59;24.37;;;8.70;;
66129;SDS011;52930;51.464;11.764;2022-12-18T02:12:43;24.13;;;9.57;;
66129;SDS011;52930;51.464;11.764;2022-12-18T02:15:18;23.13;;;10.05;;
66129;SDS011;52930;51.464;11.764;2022-12-18T02:17:52;31.67;;;9.43;;
66129;SDS011;52930;51.464;11.764;2022-12-18T02:20:35;38.08;;;10.70;;
66129;SDS011;52930;51.464;11.764;2022-12-18T02:28:24;29.23;;;9.85;;
66129;SDS011;52930;51.464;11.764;2022-12-18T02:30:53;26.15;;;9.20;;
66129;SDS011;52930;51.464;11.764;2022-12-18T02:33:21;31.15;;;9.82;;
66129;SDS011;52930;51.464;11.764;2022-12-18T02:35:47;30.43;;;10.83;;
66129;SDS011;52930;51.464;11.764;2022-12-18T02:38:13;33.33;;;10.80;;
66129;SDS011;52930;51.464;11.764;2022-12-18T02:40:39;26.52;;;9.30;;
66129;SDS011;52930;51.464;11.764;2022-12-18T02:43:10;22.30;;;8.27;;
66129;SDS011;52930;51.464;11.764;2022-12-18T02:45:47;37.95;;;11.52;;
66129;SDS011;52930;51.464;11.764;2022-12-18T02:48:15;30.15;;;9.35;;
66129;SDS011;52930;51.464;11.764;2022-12-18T02:50:45;31.42;;;10.63;;
66129;SDS011;52930;51.464;11.764;2022-12-18T02:58:43;28.30;;;9.15;;
66129;SDS011;52930;51.464;11.764;2022-12-18T03:01:15;22.85;;;8.32;;
66129;SDS011;52930;51.464;11.764;2022-12-18T03:06:40;23.13;;;8.93;;
66129;SDS011;52930;51.464;11.764;2022-12-18T03:09:12;33.37;;;10.73;;
66129;SDS011;52930;51.464;11.764;2022-12-18T03:11:41;30.55;;;11.25;;
66129;SDS011;52930;51.464;11.764;2022-12-18T03:14:29;26.30;;;8.73;;
66129;SDS011;52930;51.464;11.764;2022-12-18T03:16:57;28.77;;;10.77;;
66129;SDS011;52930;51.464;11.764;2022-12-18T03:19:24;27.10;;;11.35;;
66129;SDS011;52930;51.464;11.764;2022-12-18T03:21:53;36.63;;;12.07;;
66129;SDS011;52930;51.464;11.764;2022-12-18T03:24:20;65.93;;;11.98;;
66129;SDS011;52930;51.464;11.764;2022-12-18T03:26:47;48.83;;;12.00;;
66129;SDS011;52930;51.464;11.764;2022-12-18T03:29:26;40.40;;;11.60;;
66129;SDS011;52930;51.464;11.764;2022-12-18T03:32:04;45.30;;;12.23;;
66129;SDS011;52930;51.464;11.764;2022-12-18T03:34:32;29.75;;;11.10;;
66129;SDS011;52930;51.464;11.764;2022-12-18T03:36:59;30.77;;;10.35;;
66129;SDS011;52930;51.464;11.764;2022-12-18T03:39:24;34.80;;;12.10;;
66129;SDS011;52930;51.464;11.764;2022-12-18T03:41:55;30.50;;;11.38;;
66129;SDS011;52930;51.464;11.764;2022-12-18T03:50:16;22.48;;;9.63;;
66129;SDS011;52930;51.464;11.764;2022-12-18T03:52:53;28.73;;;9.57;;
66129;SDS011;52930;51.464;11.764;2022-12-18T03:55:23;30.52;;;10.02;;
66129;SDS011;52930;51.464;11.764;2022-12-18T03:57:50;33.77;;;11.17;;
66129;SDS011;52930;51.464;11.764;2022-12-18T04:00:17;40.17;;;11.57;;
66129;SDS011;52930;51.464;11.764;2022-12-18T04:02:53;26.02;;;10.32;;
66129;SDS011;52930;51.464;11.764;2022-12-18T04:05:20;28.75;;;10.52;;
66129;SDS011;52930;51.464;11.764;2022-12-18T04:07:47;30.60;;;11.37;;
66129;SDS011;52930;51.464;11.764;2022-12-18T04:10:13;34.42;;;12.68;;
66129;SDS011;52930;51.464;11.764;2022-12-18T04:12:39;33.00;;;12.45;;
66129;SDS011;52930;51.464;11.764;2022-12-18T04:15:05;35.17;;;12.57;;
66129;SDS011;52930;51.464;11.764;2022-12-18T04:17:31;30.42;;;10.38;;
66129;SDS011;52930;51.464;11.764;2022-12-18T04:19:56;23.80;;;11.17;;
66129;SDS011;52930;51.464;11.764;2022-12-18T04:22:22;46.30;;;11.30;;
66129;SDS011;52930;51.464;11.764;2022-12-18T04:24:47;30.20;;;10.20;;
66129;SDS011;52930;51.464;11.764;2022-12-18T04:27:13;29.10;;;10.90;;
66129;SDS011;52930;51.464;11.764;2022-12-18T04:29:38;29.90;;;10.65;;
66129;SDS011;52930;51.464;11.764;2022-12-18T04:32:04;35.87;;;11.57;;
66129;SDS011;52930;51.464;11.764;2022-12-18T04:34:29;28.98;;;9.23;;
66129;SDS011;52930;51.464;11.764;2022-12-18T04:36:55;25.73;;;9.30;;
66129;SDS011;52930;51.464;11.764;2022-12-18T04:39:21;29.87;;;10.87;;
66129;SDS011;52930;51.464;11.764;2022-12-18T04:41:46;26.43;;;10.40;;
66129;SDS011;52930;51.464;11.764;2022-12-18T04:44:12;26.45;;;10.40;;
66129;SDS011;52930;51.464;11.764;2022-12-18T04:46:38;27.58;;;8.23;;
66129;SDS011;52930;51.464;11.764;2022-12-18T04:49:03;32.80;;;9.63;;
66129;SDS011;52930;51.464;11.764;2022-12-18T04:51:28;28.67;;;8.13;;
66129;SDS011;52930;51.464;11.764;2022-12-18T04:53:54;34.05;;;10.50;;
66129;SDS011;52930;51.464;11.764;2022-12-18T04:56:19;25.63;;;9.20;;
66129;SDS011;52930;51.464;11.764;2022-12-18T04:58:45;37.80;;;8.57;;
66129;SDS011;52930;51.464;11.764;2022-12-18T05:01:11;34.33;;;9.83;;
66129;SDS011;52930;51.464;11.764;2022-12-18T05:03:37;28.52;;;9.10;;
66129;SDS011;52930;51.464;11.764;2022-12-18T05:06:03;23.93;;;8.03;;
66129;SDS011;52930;51.464;11.764;2022-12-18T05:08:29;25.20;;;10.02;;
66129;SDS011;52930;51.464;11.764;2022-12-18T05:11:13;34.87;;;9.43;;
66129;SDS011;52930;51.464;11.764;2022-12-18T05:13:43;40.33;;;10.38;;
66129;SDS011;52930;51.464;11.764;2022-12-18T05:16:09;20.10;;;8.80;;
66129;SDS011;52930;51.464;11.764;2022-12-18T05:18:35;28.50;;;8.23;;
66129;SDS011;52930;51.464;11.764;2022-12-18T05:21:00;29.25;;;9.38;;
66129;SDS011;52930;51.464;11.764;2022-12-18T05:23:26;27.10;;;10.30;;
66129;SDS011;52930;51.464;11.764;2022-12-18T05:26:02;36.10;;;9.73;;
66129;SDS011;52930;51.464;11.764;2022-12-18T05:28:30;30.83;;;10.02;;
66129;SDS011;52930;51.464;11.764;2022-12-18T05:30:58;23.80;;;9.00;;
66129;SDS011;52930;51.464;11.764;2022-12-18T05:33:25;24.05;;;10.00;;
66129;SDS011;52930;51.464;11.764;2022-12-18T05:35:52;28.80;;;9.37;;
66129;SDS011;52930;51.464;11.764;2022-12-18T05:38:21;37.30;;;9.50;;
66129;SDS011;52930;51.464;11.764;2022-12-18T05:40:48;30.33;;;9.60;;
66129;SDS011;52930;51.464;11.764;2022-12-18T05:43:14;24.60;;;9.95;;
66129;SDS011;52930;51.464;11.764;2022-12-18T05:45:40;30.63;;;10.47;;
66129;SDS011;52930;51.464;11.764;2022-12-18T05:48:06;33.22;;;9.43;;
66129;SDS011;52930;51.464;11.764;2022-12-18T05:50:36;27.58;;;10.57;;
66129;SDS011;52930;51.464;11.764;2022-12-18T05:53:02;41.10;;;10.03;;
66129;SDS011;52930;51.464;11.764;2022-12-18T05:55:28;26.60;;;9.02;;
66129;SDS011;52930;51.464;11.764;2022-12-18T05:57:54;36.65;;;10.68;;
66129;SDS011;52930;51.464;11.764;2022-12-18T06:00:19;29.93;;;9.90;;
66129;SDS011;52930;51.464;11.764;2022-12-18T06:02:48;33.30;;;9.70;;
66129;SDS011;52930;51.464;11.764;2022-12-18T06:05:13;28.23;;;9.88;;
66129;SDS011;52930;51.464;11.764;2022-12-18T06:07:39;28.77;;;10.20;;
66129;SDS011;52930;51.464;11.764;2022-12-18T06:10:04;30.00;;;10.30;;
66129;SDS011;52930;51.464;11.764;2022-12-18T06:12:30;25.17;;;9.25;;
66129;SDS011;52930;51.464;11.764;2022-12-18T06:14:56;27.97;;;9.63;;
66129;SDS011;52930;51.464;11.764;2022-12-18T06:17:21;30.37;;;9.60;;
66129;SDS011;52930;51.464;11.764;2022-12-18T06:19:47;22.85;;;8.98;;
66129;SDS011;52930;51.464;11.764;2022-12-18T06:22:12;29.37;;;9.30;;
66129;SDS011;52930;51.464;11.764;2022-12-18T06:24:38;33.17;;;10.43;;
66129;SDS011;52930;51.464;11.764;2022-12-18T06:27:03;27.13;;;8.33;;
66129;SDS011;52930;51.464;11.764;2022-12-18T06:29:28;30.87;;;10.20;;
66129;SDS011;52930;51.464;11.764;2022-12-18T06:31:54;28.80;;;9.43;;
66129;SDS011;52930;51.464;11.764;2022-12-18T06:34:19;35.73;;;11.10;;
66129;SDS011;52930;51.464;11.764;2022-12-18T06:36:44;30.77;;;9.15;;
66129;SDS011;52930;51.464;11.764;2022-12-18T06:39:10;29.00;;;9.85;;
66129;SDS011;52930;51.464;11.764;2022-12-18T06:41:35;22.80;;;8.00;;
66129;SDS011;52930;51.464;11.764;2022-12-18T06:44:01;23.87;;;8.57;;
66129;SDS011;52930;51.464;11.764;2022-12-18T06:46:26;37.20;;;10.23;;
66129;SDS011;52930;51.464;11.764;2022-12-18T06:48:51;21.87;;;8.17;;
66129;SDS011;52930;51.464;11.764;2022-12-18T06:51:21;36.38;;;11.00;;
66129;SDS011;52930;51.464;11.764;2022-12-18T06:53:47;32.30;;;9.45;;
66129;SDS011;52930;51.464;11.764;2022-12-18T06:56:12;36.13;;;10.70;;
66129;SDS011;52930;51.464;11.764;2022-12-18T06:58:38;44.37;;;13.20;;
66129;SDS011;52930;51.464;11.764;2022-12-18T07:01:04;28.75;;;10.48;;
66129;SDS011;52930;51.464;11.764;2022-12-18T07:03:31;25.93;;;9.27;;
66129;SDS011;52930;51.464;11.764;2022-12-18T07:05:57;33.58;;;11.52;;
66129;SDS011;52930;51.464;11.764;2022-12-18T07:08:22;33.73;;;11.33;;
66129;SDS011;52930;51.464;11.764;2022-12-18T07:10:48;38.00;;;12.83;;
66129;SDS011;52930;51.464;11.764;2022-12-18T07:13:16;35.72;;;10.90;;
66129;SDS011;52930;51.464;11.764;2022-12-18T07:15:42;35.47;;;10.85;;
66129;SDS011;52930;51.464;11.764;2022-12-18T07:18:08;28.80;;;8.90;;
66129;SDS011;52930;51.464;11.764;2022-12-18T07:20:33;30.07;;;9.67;;
66129;SDS011;52930;51.464;11.764;2022-12-18T07:22:59;14.23;;;6.07;;
66129;SDS011;52930;51.464;11.764;2022-12-18T07:25:27;5.95;;;3.00;;
66129;SDS011;52930;51.464;11.764;2022-12-18T07:27:52;24.23;;;8.03;;
66129;SDS011;52930;51.464;11.764;2022-12-18T07:30:17;24.77;;;8.80;;
66129;SDS011;52930;51.464;11.764;2022-12-18T07:32:43;22.88;;;8.88;;
66129;SDS011;52930;51.464;11.764;2022-12-18T07:35:08;17.90;;;5.90;;
66129;SDS011;52930;51.464;11.764;2022-12-18T07:37:34;26.63;;;10.03;;
66129;SDS011;52930;51.464;11.764;2022-12-18T07:39:59;25.53;;;9.43;;
66129;SDS011;52930;51.464;11.764;2022-12-18T07:42:25;20.23;;;6.07;;
66129;SDS011;52930;51.464;11.764;2022-12-18T07:44:56;23.95;;;7.38;;
66129;SDS011;52930;51.464;11.764;2022-12-18T07:47:22;24.80;;;7.78;;
66129;SDS011;52930;51.464;11.764;2022-12-18T07:49:47;26.27;;;8.23;;
66129;SDS011;52930;51.464;11.764;2022-12-18T07:52:13;26.07;;;9.83;;
66129;SDS011;52930;51.464;11.764;2022-12-18T07:54:38;32.07;;;11.60;;
66129;SDS011;52930;51.464;11.764;2022-12-18T07:57:05;27.30;;;10.70;;
66129;SDS011;52930;51.464;11.764;2022-12-18T07:59:31;28.10;;;10.77;;
66129;SDS011;52930;51.464;11.764;2022-12-18T08:01:56;23.73;;;9.10;;
66129;SDS011;52930;51.464;11.764;2022-12-18T08:04:21;27.23;;;9.43;;
66129;SDS011;52930;51.464;11.764;2022-12-18T08:06:47;29.00;;;10.60;;
66129;SDS011;52930;51.464;11.764;2022-12-18T08:09:12;23.90;;;8.60;;
66129;SDS011;52930;51.464;11.764;2022-12-18T08:11:38;20.50;;;6.30;;
66129;SDS011;52930;51.464;11.764;2022-12-18T08:14:03;32.03;;;10.23;;
66129;SDS011;52930;51.464;11.764;2022-12-18T08:16:29;13.97;;;6.60;;
66129;SDS011;52930;51.464;11.764;2022-12-18T08:18:55;24.77;;;9.20;;
66129;SDS011;52930;51.464;11.764;2022-12-18T08:21:22;21.57;;;8.23;;
66129;SDS011;52930;51.464;11.764;2022-12-18T08:23:49;23.55;;;6.93;;
66129;SDS011;52930;51.464;11.764;2022-12-18T08:26:15;18.02;;;6.63;;
66129;SDS011;52930;51.464;11.764;2022-12-18T08:28:41;23.23;;;7.77;;
66129;SDS011;52930;51.464;11.764;2022-12-18T08:31:07;30.35;;;8.35;;
66129;SDS011;52930;51.464;11.764;2022-12-18T08:33:33;34.92;;;10.43;;
66129;SDS011;52930;51.464;11.764;2022-12-18T08:35:59;31.83;;;10.93;;
66129;SDS011;52930;51.464;11.764;2022-12-18T08:38:25;21.42;;;7.90;;
66129;SDS011;52930;51.464;11.764;2022-12-18T08:40:57;30.80;;;11.20;;
66129;SDS011;52930;51.464;11.764;2022-12-18T08:43:26;27.73;;;9.98;;
66129;SDS011;52930;51.464;11.764;2022-12-18T08:46:11;26.60;;;9.05;;
66129;SDS011;52930;51.464;11.764;2022-12-18T08:48:36;32.90;;;8.10;;
66129;SDS011;52930;51.464;11.764;2022-12-18T08:51:01;15.00;;;5.32;;
66129;SDS011;52930;51.464;11.764;2022-12-18T08:53:27;21.17;;;6.72;;
66129;SDS011;52930;51.464;11.764;2022-12-18T08:55:52;37.80;;;13.40;;
66129;SDS011;52930;51.464;11.764;2022-12-18T08:58:18;42.60;;;12.80;;
66129;SDS011;52930;51.464;11.764;2022-12-18T09:00:44;39.28;;;12.40;;
66129;SDS011;52930;51.464;11.764;2022-12-18T09:03:11;38.67;;;12.35;;
66129;SDS011;52930;51.464;11.764;2022-12-18T09:05:37;34.13;;;11.43;;
66129;SDS011;52930;51.464;11.764;2022-12-18T09:08:02;31.63;;;10.88;;
66129;SDS011;52930;51.464;11.764;2022-12-18T09:10:28;31.57;;;11.43;;
66129;SDS011;52930;51.464;11.764;2022-12-18T09:12:53;29.77;;;9.70;;
66129;SDS011;52930;51.464;11.764;2022-12-18T09:15:21;31.30;;;10.13;;
66129;SDS011;52930;51.464;11.764;2022-12-18T09:17:46;32.27;;;10.07;;
66129;SDS011;52930;51.464;11.764;2022-12-18T09:20:13;28.95;;;8.57;;
66129;SDS011;52930;51.464;11.764;2022-12-18T09:22:38;27.30;;;10.37;;
66129;SDS011;52930;51.464;11.764;2022-12-18T09:25:04;26.20;;;8.25;;
66129;SDS011;52930;51.464;11.764;2022-12-18T09:27:32;26.13;;;10.10;;
66129;SDS011;52930;51.464;11.764;2022-12-18T09:29:58;21.98;;;9.02;;
66129;SDS011;52930;51.464;11.764;2022-12-18T09:32:24;27.63;;;9.73;;
66129;SDS011;52930;51.464;11.764;2022-12-18T09:34:49;29.70;;;10.45;;
66129;SDS011;52930;51.464;11.764;2022-12-18T09:37:14;25.13;;;9.68;;
66129;SDS011;52930;51.464;11.764;2022-12-18T09:39:40;29.23;;;8.73;;
66129;SDS011;52930;51.464;11.764;2022-12-18T09:42:05;24.33;;;9.63;;
66129;SDS011;52930;51.464;11.764;2022-12-18T09:44:50;34.15;;;12.25;;
66129;SDS011;52930;51.464;11.764;2022-12-18T09:47:24;27.97;;;10.20;;
66129;SDS011;52930;51.464;11.764;2022-12-18T09:49:55;21.23;;;8.25;;
66129;SDS011;52930;51.464;11.764;2022-12-18T09:52:27;23.15;;;8.82;;
66129;SDS011;52930;51.464;11.764;2022-12-18T09:55:00;20.65;;;8.77;;
66129;SDS011;52930;51.464;11.764;2022-12-18T09:57:28;25.60;;;9.43;;
66129;SDS011;52930;51.464;11.764;2022-12-18T09:59:56;24.97;;;9.27;;
66129;SDS011;52930;51.464;11.764;2022-12-18T10:02:26;27.38;;;10.02;;
66129;SDS011;52930;51.464;11.764;2022-12-18T10:05:01;29.23;;;10.93;;
66129;SDS011;52930;51.464;11.764;2022-12-18T10:07:38;27.23;;;10.00;;
66129;SDS011;52930;51.464;11.764;2022-12-18T10:12:59;26.73;;;9.90;;
66129;SDS011;52930;51.464;11.764;2022-12-18T10:15:36;36.42;;;12.52;;
66129;SDS011;52930;51.464;11.764;2022-12-18T10:28:13;39.57;;;14.77;;
66129;SDS011;52930;51.464;11.764;2022-12-18T10:30:42;37.17;;;13.85;;
66129;SDS011;52930;51.464;11.764;2022-12-18T10:33:18;45.08;;;13.32;;
66129;SDS011;52930;51.464;11.764;2022-12-18T10:35:49;36.35;;;14.00;;
66129;SDS011;52930;51.464;11.764;2022-12-18T10:40:48;28.80;;;11.17;;
66129;SDS011;52930;51.464;11.764;2022-12-18T10:43:28;39.00;;;12.98;;
66129;SDS011;52930;51.464;11.764;2022-12-18T10:48:27;36.13;;;12.15;;
66129;SDS011;52930;51.464;11.764;2022-12-18T10:50:53;38.25;;;14.70;;
66129;SDS011;52930;51.464;11.764;2022-12-18T10:53:20;41.72;;;14.65;;
66129;SDS011;52930;51.464;11.764;2022-12-18T10:55:47;40.28;;;16.77;;
66129;SDS011;52930;51.464;11.764;2022-12-18T10:58:16;38.70;;;15.17;;
66129;SDS011;52930;51.464;11.764;2022-12-18T11:03:42;35.13;;;12.77;;
66129;SDS011;52930;51.464;11.764;2022-12-18T11:06:20;37.93;;;13.83;;
66129;SDS011;52930;51.464;11.764;2022-12-18T11:11:58;43.47;;;15.07;;
66129;SDS011;52930;51.464;11.764;2022-12-18T11:14:29;43.33;;;14.65;;
66129;SDS011;52930;51.464;11.764;2022-12-18T11:16:57;45.95;;;18.27;;
66129;SDS011;52930;51.464;11.764;2022-12-18T11:19:29;54.40;;;21.50;;
66129;SDS011;52930;51.464;11.764;2022-12-18T11:21:56;56.25;;;20.83;;
66129;SDS011;52930;51.464;11.764;2022-12-18T11:26:53;37.53;;;15.27;;
66129;SDS011;52930;51.464;11.764;2022-12-18T11:29:22;43.33;;;15.68;;
66129;SDS011;52930;51.464;11.764;2022-12-18T11:31:50;40.58;;;15.13;;
66129;SDS011;52930;51.464;11.764;2022-12-18T11:36:51;46.05;;;16.38;;
66129;SDS011;52930;51.464;11.764;2022-12-18T11:39:19;38.90;;;14.57;;
66129;SDS011;52930;51.464;11.764;2022-12-18T11:41:57;35.75;;;13.73;;
66129;SDS011;52930;51.464;11.764;2022-12-18T11:44:46;39.40;;;15.80;;
66129;SDS011;52930;51.464;11.764;2022-12-18T11:47:19;42.23;;;16.33;;
66129;SDS011;52930;51.464;11.764;2022-12-18T11:49:49;45.22;;;16.27;;
66129;SDS011;52930;51.464;11.764;2022-12-18T11:52:16;49.53;;;18.88;;
66129;SDS011;52930;51.464;11.764;2022-12-18T11:54:43;48.75;;;18.30;;
66129;SDS011;52930;51.464;11.764;2022-12-18T12:08:07;60.42;;;20.67;;
66129;SDS011;52930;51.464;11.764;2022-12-18T12:16:04;58.25;;;21.13;;
66129;SDS011;52930;51.464;11.764;2022-12-18T12:21:40;51.55;;;19.67;;
66129;SDS011;52930;51.464;11.764;2022-12-18T12:26:52;57.80;;;20.92;;
66129;SDS011;52930;51.464;11.764;2022-12-18T12:29:51;52.60;;;18.85;;
66129;SDS011;52930;51.464;11.764;2022-12-18T12:35:29;51.95;;;19.70;;
66129;SDS011;52930;51.464;11.764;2022-12-18T12:38:02;59.25;;;20.92;;
66129;SDS011;52930;51.464;11.764;2022-12-18T12:40:45;54.83;;;19.45;;
66129;SDS011;52930;51.464;11.764;2022-12-18T12:43:19;60.47;;;21.35;;
66129;SDS011;52930;51.464;11.764;2022-12-18T12:50:48;63.72;;;21.73;;
66129;SDS011;52930;51.464;11.764;2022-12-18T12:53:19;45.75;;;18.45;;
66129;SDS011;52930;51.464;11.764;2022-12-18T12:55:58;55.95;;;20.45;;
66129;SDS011;52930;51.464;11.764;2022-12-18T12:58:35;49.43;;;18.43;;
66129;SDS011;52930;51.464;11.764;2022-12-18T13:01:08;53.78;;;17.58;;
66129;SDS011;52930;51.464;11.764;2022-12-18T13:06:54;45.70;;;17.67;;
66129;SDS011;52930;51.464;11.764;2022-12-18T13:09:03;42.65;;;17.15;;
66129;SDS011;52930;51.464;11.764;2022-12-18T13:11:35;42.65;;;16.40;;
66129;SDS011;52930;51.464;11.764;2022-12-18T13:14:29;34.45;;;14.35;;
66129;SDS011;52930;51.464;11.764;2022-12-18T13:19:50;39.17;;;15.38;;
66129;SDS011;52930;51.464;11.764;2022-12-18T13:22:23;50.00;;;18.30;;
66129;SDS011;52930;51.464;11.764;2022-12-18T13:24:52;34.17;;;13.95;;
66129;SDS011;52930;51.464;11.764;2022-12-18T13:30:37;35.45;;;13.27;;
66129;SDS011;52930;51.464;11.764;2022-12-18T13:35:39;36.53;;;12.88;;
66129;SDS011;52930;51.464;11.764;2022-12-18T13:43:53;31.53;;;12.43;;
66129;SDS011;52930;51.464;11.764;2022-12-18T13:46:18;34.63;;;12.70;;
66129;SDS011;52930;51.464;11.764;2022-12-18T13:49:13;33.45;;;13.60;;
66129;SDS011;52930;51.464;11.764;2022-12-18T13:51:42;28.27;;;12.07;;
66129;SDS011;52930;51.464;11.764;2022-12-18T13:54:19;29.00;;;12.32;;
66129;SDS011;52930;51.464;11.764;2022-12-18T13:56:50;38.33;;;13.70;;
66129;SDS011;52930;51.464;11.764;2022-12-18T13:59:26;28.10;;;11.95;;
66129;SDS011;52930;51.464;11.764;2022-12-18T14:01:58;33.08;;;13.40;;
66129;SDS011;52930;51.464;11.764;2022-12-18T14:04:26;33.23;;;12.77;;
66129;SDS011;52930;51.464;11.764;2022-12-18T14:09:28;35.38;;;12.63;;
66129;SDS011;52930;51.464;11.764;2022-12-18T14:11:55;30.02;;;11.13;;
66129;SDS011;52930;51.464;11.764;2022-12-18T14:14:42;30.95;;;11.77;;
66129;SDS011;52930;51.464;11.764;2022-12-18T14:17:10;28.93;;;11.57;;
66129;SDS011;52930;51.464;11.764;2022-12-18T14:19:36;31.98;;;12.32;;
66129;SDS011;52930;51.464;11.764;2022-12-18T14:22:01;31.13;;;12.18;;
66129;SDS011;52930;51.464;11.764;2022-12-18T14:24:27;31.80;;;12.43;;
66129;SDS011;52930;51.464;11.764;2022-12-18T14:26:53;33.50;;;13.10;;
66129;SDS011;52930;51.464;11.764;2022-12-18T14:34:48;29.88;;;11.05;;
66129;SDS011;52930;51.464;11.764;2022-12-18T14:37:16;31.83;;;12.30;;
66129;SDS011;52930;51.464;11.764;2022-12-18T14:39:53;31.00;;;12.07;;
66129;SDS011;52930;51.464;11.764;2022-12-18T14:42:19;30.10;;;11.48;;
66129;SDS011;52930;51.464;11.764;2022-12-18T14:44:44;33.65;;;12.60;;
66129;SDS011;52930;51.464;11.764;2022-12-18T14:47:13;28.45;;;11.77;;
66129;SDS011;52930;51.464;11.764;2022-12-18T14:49:40;33.40;;;11.20;;
66129;SDS011;52930;51.464;11.764;2022-12-18T14:52:26;29.63;;;12.65;;
66129;SDS011;52930;51.464;11.764;2022-12-18T14:54:53;32.53;;;12.10;;
66129;SDS011;52930;51.464;11.764;2022-12-18T14:57:21;40.27;;;15.77;;
66129;SDS011;52930;51.464;11.764;2022-12-18T14:59:48;52.22;;;17.70;;
66129;SDS011;52930;51.464;11.764;2022-12-18T15:02:23;56.70;;;17.35;;
66129;SDS011;52930;51.464;11.764;2022-12-18T15:05:04;49.58;;;18.52;;
66129;SDS011;52930;51.464;11.764;2022-12-18T15:07:52;36.22;;;14.45;;
66129;SDS011;52930;51.464;11.764;2022-12-18T15:10:22;30.33;;;13.27;;
66129;SDS011;52930;51.464;11.764;2022-12-18T15:18:09;26.05;;;9.85;;
66129;SDS011;52930;51.464;11.764;2022-12-18T15:20:41;23.27;;;9.05;;
66129;SDS011;52930;51.464;11.764;2022-12-18T15:23:14;22.92;;;9.73;;
66129;SDS011;52930;51.464;11.764;2022-12-18T15:25:46;29.15;;;10.25;;
66129;SDS011;52930;51.464;11.764;2022-12-18T15:36:17;21.43;;;8.73;;
66129;SDS011;52930;51.464;11.764;2022-12-18T15:38:49;23.65;;;8.55;;
66129;SDS011;52930;51.464;11.764;2022-12-18T15:41:16;27.33;;;8.80;;
66129;SDS011;52930;51.464;11.764;2022-12-18T15:43:43;20.98;;;8.65;;
66129;SDS011;52930;51.464;11.764;2022-12-18T15:46:13;26.15;;;9.13;;
66129;SDS011;52930;51.464;11.764;2022-12-18T15:48:44;22.23;;;8.65;;
66129;SDS011;52930;51.464;11.764;2022-12-18T15:51:27;24.25;;;9.43;;
66129;SDS011;52930;51.464;11.764;2022-12-18T15:53:55;23.70;;;9.03;;
66129;SDS011;52930;51.464;11.764;2022-12-18T15:56:21;22.17;;;9.98;;
66129;SDS011;52930;51.464;11.764;2022-12-18T15:59:13;24.80;;;10.50;;
66129;SDS011;52930;51.464;11.764;2022-12-18T16:01:40;24.02;;;8.95;;
66129;SDS011;52930;51.464;11.764;2022-12-18T16:04:06;24.70;;;10.13;;
66129;SDS011;52930;51.464;11.764;2022-12-18T16:06:31;26.80;;;11.60;;
66129;SDS011;52930;51.464;11.764;2022-12-18T16:08:57;27.27;;;10.90;;
66129;SDS011;52930;51.464;11.764;2022-12-18T16:11:23;30.27;;;10.53;;
66129;SDS011;52930;51.464;11.764;2022-12-18T16:14:16;23.15;;;8.43;;
66129;SDS011;52930;51.464;11.764;2022-12-18T16:16:42;25.92;;;9.20;;
66129;SDS011;52930;51.464;11.764;2022-12-18T16:19:07;20.07;;;8.33;;
66129;SDS011;52930;51.464;11.764;2022-12-18T16:21:33;21.27;;;9.00;;
66129;SDS011;52930;51.464;11.764;2022-12-18T16:23:58;21.70;;;7.97;;
66129;SDS011;52930;51.464;11.764;2022-12-18T16:26:24;20.43;;;8.20;;